This demonstration page uses our WeatherBlox Daily Observations layout. Learn more.

36.19886, -115.1175

Hourly Observations for September 21, 2019

Temp ( °F °C ) Dew Point ( °F °C ) Humidity (%) Winds ( mph kmh ) Pressure ( in mb ) Visibility ( mi km ) Precip ( " mm )
12:53 am 00:53 Clear 67 19.4 28 -2.2 23 23 NW 8 13 29.91 1013 10 16.09344 0 0
1:53 am 01:53 Clear 67 19.4 25 -3.9 20 20 WNW 6 9 29.91 1013 10 16.09344 0 0
2:53 am 02:53 Clear 68 20 24 -4.4 19 19 NNW 7 11 29.91 1013 10 16.09344 0 0
3:53 am 03:53 Clear 67 19.4 24 -4.4 20 20 N 7 11 29.91 1013 10 16.09344 0 0
4:53 am 04:53 Clear 64 17.8 24 -4.4 22 22 W 6 9 29.94 1014 10 16.09344 0 0
5:53 am 05:53 Clear 62 16.7 25 -3.9 24 24 Calm 29.94 1014 10 16.09344 0 0
6:53 am 06:53 Sunny 63 17.2 27 -2.8 26 26 W 7 11 29.97 1015 10 16.09344 0 0
7:53 am 07:53 Sunny 68 20 24 -4.4 19 19 NW 10 17 30 1016 10 16.09344 0 0
8:53 am 08:53 Sunny 71 21.7 27 -2.8 19 19 WNW 7 11 30 1016 10 16.09344 0 0
9:53 am 09:53 Sunny 76 24.4 26 -3.3 16 16 VRB 5 7 30 1016 10 16.09344 0 0
10:53 am 10:53 Sunny 77 25 26 -3.3 15 15 SSE 6 9 30 1016 10 16.09344 0 0
11:53 am 11:53 Sunny 79 26.1 28 -2.2 15 15 Calm 30 1016 10 16.09344 0 0
12:53 pm 12:53 Sunny 80 26.7 28 -2.2 15 15 undefined N/A 29.97 1015 10 16.09344 0 0
1:53 pm 13:53 Sunny 82 27.8 28 -2.2 14 14 Calm 29.94 1014 10 16.09344 0 0
2:53 pm 14:53 Sunny 82 27.8 28 -2.2 14 14 VRB 5 7 29.91 1013 10 16.09344 0 0
3:53 pm 15:53 Sunny 84 28.9 27 -2.8 12 12 E 7 11 29.91 1013 10 16.09344 0 0
4:53 pm 16:53 Sunny 84 28.9 26 -3.3 12 12 ENE 5 7 29.88 1012 10 16.09344 0 0
5:53 pm 17:53 Sunny 83 28.3 26 -3.3 12 12 E 8 13 29.91 1013 10 16.09344 0 0
6:53 pm 18:53 Clear 82 27.8 26 -3.3 13 13 SSE 5 7 29.91 1013 10 16.09344 0 0
7:53 pm 19:53 Clear 79 26.1 27 -2.8 15 15 ESE 3 6 29.91 1013 10 16.09344 0 0
8:53 pm 20:53 Clear 76 24.4 30 -1.1 18 18 Calm 29.94 1014 10 16.09344 0 0
9:53 pm 21:53 Clear 75 23.9 30 -1.1 19 19 W 8 13 29.94 1014 10 16.09344 0 0
10:53 pm 22:53 Clear 73 22.8 31 -0.6 21 21 W 6 9 29.94 1014 10 16.09344 0 0
11:53 pm 23:53 Clear 70 21.1 29 -1.7 22 22 NW 7 11 29.94 1014 10 16.09344 0 0

Powered by AerisWeather